Terminal Aerodrome Forecast
Issued by NWS

Home | Current Version | Previous Version | Text Only | Print | Product List | Glossary Off
Versions: 1 2 3 4 5 6 7 8 9 10 11 12 13 14 15 16 17 18

000
FTUS43 KIWX 230441 AAA
TAFSBN
TAF AMD
KSBN 230441Z 2305/2324 11013G21KT P6SM OVC009
     FM230900 14006KT 4SM BR OVC005
      TEMPO 2311/2314 2SM -RA BR BKN003
     FM231700 25010KT P6SM OVC015=

USA.gov is the U.S. government's official web portal to all federal, state and local government web resources and services.